Pagrindinis puslapis
METAR-TAF:

METAR-TAF

Oro uostai :

Sandakan, Malaizija

platuma: 05-54N, ilguma: 118-04E, Aukštis: 12 m

Dabartinis oras

Ataskaita buvo paskelbta 1 valandą ir 3 minutes, ne 20:00 UTC
Vėjas 3 kt nuo kintamojo kryptimis
Temperatūra 26°C
Drėgmė 94%
Slėgis 1009 hPa
Matomumas: 9000 m
Mažai debesys ne aukštis 1600 ft
Su prošvaistėmis ne aukštis 28000 ft

METAR: WBKS 202000Z VRB03KT 9000 FEW016 BKN280 26/25 Q1009

Laikas: 05:03 (21:03 UTC)

Prognozė

Ataskaita buvo paskelbta 4 valandos ir 3 minutes, ne 17:00 UTC
Prognozė galioja nuo 20 metu 18 UTC su 21 metu 18 UTC
Vėjas 5 kt iš Pietvakarių
Matomumas: 9000 m
Mažai debesys ne aukštis 1600 ft

TAF: WBKS 201700Z 2018/2118 22005KT 9000 FEW016

Orai ataskaitas ir orų prognozės (METAR, TAF).

turimą stotys yra geltonos ir raudonos taškus žemėlapyje.

Perkelti pele per norėdami pamatyti stoties vardą.

Tada spustelėkite, norėdami matyti oro stebėjimo ir prognozės.

Norėdami pakeisti žemėlapį: spustelėkite ant žalios mygtukų su juodo kryžiaus žemyn,; žalią mygtuką su brūkšneliu, jei norite nutolinti; arba žalių rodyklių gretimoms žemėlapius.


METAR-TAF: